Cape Lambert — V7TC9 — position and weather

sailwx.info

Track history (hours):
 
Tides and Currents Weather Stations Pressure Air Temp Water Temp Dewpoint Dewpoint Depression Visibility Wind Speed Wind Dir Waves Ship Positions

Cape Lambert

Last reported at 2017-Feb-11 15:28 UTC. Time now 2017-Feb-27 20:33 UTC.
Position N 01°57' E 102°15'.
Warning: this ship's position is 16 days out of date.

Length 290 m; draft 8.6 m.

Type: Cargo ship. MMSI: 538003781.

Date/timePositionNaut miles runAvg speedWind from/ knotsBaromVisibWave heightAir tempDewpointWater temp
2017-Feb-11 15:28N 01°57' E 102°15'9 9.6
2017-Feb-11 14:32N 01°54' E 102°23'9 9.0
2017-Feb-11 13:33N 01°50' E 102°31'9 9.0
2017-Feb-11 12:33N 01°46' E 102°40'10 9.9
2017-Feb-11 11:32N 01°42' E 102°49'48 9.5
2017-Feb-11 06:31N 01°14' E 103°27'1010.4
2017-Feb-11 05:33N 01°12' E 103°37'9 9.2
2017-Feb-11 04:34N 01°09' E 103°46'1110.5
2017-Feb-11 03:33N 01°14' E 103°55'1110.4
2017-Feb-11 02:33N 01°17' E 104°05'2 0.5
2017-Feb-10 22:27N 01°19' E 104°04'0 0.1
2017-Feb-10 21:15N 01°19' E 104°04'0 0.0
2017-Feb-10 20:18N 01°19' E 104°04'0 0.1
2017-Feb-10 19:33N 01°19' E 104°04'0 0.0
2017-Feb-10 18:18N 01°19' E 104°04'0 0.0
2017-Feb-10 12:03N 01°19' E 104°04'0 0.0
2017-Feb-10 11:12N 01°19' E 104°04'0 0.2
2017-Feb-10 10:24N 01°19' E 104°04'0 0.1
2017-Feb-10 09:27N 01°19' E 104°04'0 0.0
2017-Feb-10 04:12N 01°19' E 104°04'0 0.1
2017-Feb-10 03:33N 01°19' E 104°04'  
Track history (hours):
 
Tides and Currents Weather Stations Pressure Air Temp Water Temp Dewpoint Dewpoint Depression Visibility Wind Speed Wind Dir Waves Ship Positions

Cape Lambert

Last reported at 2017-Feb-11 15:28 UTC. Time now 2017-Feb-27 20:33 UTC.
Position N 01°57' E 102°15'.
Warning: this ship's position is 16 days out of date.

Length 290 m; draft 8.6 m.

Type: Cargo ship. MMSI: 538003781.

Date/timePositionNaut miles runAvg speedWind from/ knotsBaromVisibWave heightAir tempDewpointWater temp
2017-Feb-11 15:28N 01°57' E 102°15'9 9.6
2017-Feb-11 14:32N 01°54' E 102°23'9 9.0
2017-Feb-11 13:33N 01°50' E 102°31'9 9.0
2017-Feb-11 12:33N 01°46' E 102°40'10 9.9
2017-Feb-11 11:32N 01°42' E 102°49'48 9.5
2017-Feb-11 06:31N 01°14' E 103°27'1010.4
2017-Feb-11 05:33N 01°12' E 103°37'9 9.2
2017-Feb-11 04:34N 01°09' E 103°46'1110.5
2017-Feb-11 03:33N 01°14' E 103°55'1110.4
2017-Feb-11 02:33N 01°17' E 104°05'2 0.5
2017-Feb-10 22:27N 01°19' E 104°04'0 0.1
2017-Feb-10 21:15N 01°19' E 104°04'0 0.0
2017-Feb-10 20:18N 01°19' E 104°04'0 0.1
2017-Feb-10 19:33N 01°19' E 104°04'0 0.0
2017-Feb-10 18:18N 01°19' E 104°04'0 0.0
2017-Feb-10 12:03N 01°19' E 104°04'0 0.0
2017-Feb-10 11:12N 01°19' E 104°04'0 0.2
2017-Feb-10 10:24N 01°19' E 104°04'0 0.1
2017-Feb-10 09:27N 01°19' E 104°04'0 0.0
2017-Feb-10 04:12N 01°19' E 104°04'0 0.1
2017-Feb-10 03:33N 01°19' E 104°04'  

Dump ship's entire track history